Time;durP1;ratioP1;P1;durP2;ratioP2;P2;SDS_P1;SDS_P2;PMS_P1;PMS_P2;Temp;Humidity;BMP_temperature;BMP_pressure;BME280_temperature;BME280_humidity;BME280_pressure;Samples;Min_cycle;Max_cycle;Signal;HPM_P1;HPM_P2
2022/12/27 00:02:06;;;;;;;5.82;2.22;;;;;;;;;;5031900;28;20045;-72
2022/12/27 00:04:32;;;;;;;6.65;2.50;;;;;;;;;;5049142;28;20388;-71
2022/12/27 00:06:58;;;;;;;8.90;3.30;;;;;;;;;;5048840;28;20124;-71
2022/12/27 00:09:24;;;;;;;4.57;2.22;;;;;;;;;;5042949;28;20347;-72
2022/12/27 00:11:50;;;;;;;12.05;2.45;;;;;;;;;;5046667;28;20044;-72
2022/12/27 00:14:16;;;;;;;8.27;2.00;;;;;;;;;;5047456;28;20047;-72
2022/12/27 00:16:42;;;;;;;8.50;2.80;;;;;;;;;;5050243;28;20033;-72
2022/12/27 00:19:08;;;;;;;9.02;1.88;;;;;;;;;;5048297;28;20499;-72
2022/12/27 00:21:35;;;;;;;6.20;2.17;;;;;;;;;;5046874;28;20120;-72
2022/12/27 00:24:01;;;;;;;5.22;2.28;;;;;;;;;;5045511;28;20410;-72
2022/12/27 00:26:28;;;;;;;7.55;2.50;;;;;;;;;;5046512;28;20059;-72
2022/12/27 00:28:54;;;;;;;7.30;2.30;;;;;;;;;;5043326;28;20502;-71
2022/12/27 00:31:21;;;;;;;8.18;2.50;;;;;;;;;;5042821;28;20036;-71
2022/12/27 00:33:48;;;;;;;6.95;2.25;;;;;;;;;;5046577;28;20051;-71
2022/12/27 00:36:16;;;;;;;7.15;2.22;;;;;;;;;;5047585;28;20107;-72
2022/12/27 00:38:42;;;;;;;7.32;2.53;;;;;;;;;;5049462;28;20083;-72
2022/12/27 00:41:08;;;;;;;7.35;2.35;;;;;;;;;;5048450;28;20064;-71
2022/12/27 00:43:35;;;;;;;8.63;2.72;;;;;;;;;;5051859;28;20457;-71
2022/12/27 00:46:01;;;;;;;10.38;2.28;;;;;;;;;;5052662;28;20147;-72
2022/12/27 00:48:27;;;;;;;11.98;2.47;;;;;;;;;;5053509;28;20048;-71
2022/12/27 00:50:58;;;;;;;9.90;2.65;;;;;;;;;;5053431;28;20044;-72
2022/12/27 00:53:24;;;;;;;8.88;2.88;;;;;;;;;;5053958;28;20041;-72
2022/12/27 00:55:50;;;;;;;5.82;2.50;;;;;;;;;;5044515;28;20438;-72
2022/12/27 00:58:16;;;;;;;9.18;2.80;;;;;;;;;;5052766;28;20094;-72
2022/12/27 01:00:42;;;;;;;9.88;2.58;;;;;;;;;;5053871;28;20120;-72
2022/12/27 01:03:08;;;;;;;5.38;2.17;;;;;;;;;;5050312;28;20124;-70
2022/12/27 01:05:37;;;;;;;15.75;3.40;;;;;;;;;;5053813;28;20044;-71
2022/12/27 01:08:04;;;;;;;10.55;2.53;;;;;;;;;;5046604;28;20655;-70
2022/12/27 01:10:30;;;;;;;8.50;2.80;;;;;;;;;;5052710;28;20124;-70
2022/12/27 01:12:56;;;;;;;12.68;3.25;;;;;;;;;;5047953;28;20033;-71
2022/12/27 01:15:22;;;;;;;10.70;2.60;;;;;;;;;;5053801;28;20052;-71
2022/12/27 01:17:48;;;;;;;6.90;2.58;;;;;;;;;;5050031;28;20068;-71
2022/12/27 01:20:14;;;;;;;13.55;3.03;;;;;;;;;;5050810;28;20033;-72
2022/12/27 01:22:40;;;;;;;8.55;2.97;;;;;;;;;;5032018;28;20390;-72
2022/12/27 01:25:06;;;;;;;14.18;3.45;;;;;;;;;;5052693;28;20033;-71
2022/12/27 01:27:32;;;;;;;13.27;3.20;;;;;;;;;;5052468;28;20453;-71
2022/12/27 01:29:58;;;;;;;12.60;3.00;;;;;;;;;;5050876;28;20048;-71
2022/12/27 01:32:25;;;;;;;6.28;2.72;;;;;;;;;;5050724;28;20049;-71
2022/12/27 01:34:51;;;;;;;15.02;3.25;;;;;;;;;;5050133;28;20040;-71
2022/12/27 01:37:17;;;;;;;6.15;2.85;;;;;;;;;;5052546;28;20037;-70
2022/12/27 01:39:43;;;;;;;8.35;2.75;;;;;;;;;;5104726;22;20524;-67
2022/12/27 01:45:13;;;;;;;11.80;2.90;;;;;;;;;;5070704;28;20123;-68
2022/12/27 01:47:41;;;;;;;7.93;2.70;;;;;;;;;;5069971;28;20391;-68
2022/12/27 01:50:19;;;;;;;9.32;2.80;;;;;;;;;;5036621;28;20558;-67
2022/12/27 01:52:55;;;;;;;8.80;2.90;;;;;;;;;;5069752;28;20102;-67
2022/12/27 01:55:21;;;;;;;10.43;2.95;;;;;;;;;;5070960;28;20522;-67
2022/12/27 01:57:49;;;;;;;10.57;3.50;;;;;;;;;;5074740;28;20032;-67
2022/12/27 02:00:15;;;;;;;10.45;3.28;;;;;;;;;;5068688;28;20032;-68
2022/12/27 02:02:41;;;;;;;11.43;3.25;;;;;;;;;;5068697;28;20032;-67
2022/12/27 02:05:09;;;;;;;7.95;3.30;;;;;;;;;;5054575;28;20409;-68
2022/12/27 02:07:42;;;;;;;12.20;3.47;;;;;;;;;;5075384;28;20036;-68
2022/12/27 02:10:08;;;;;;;7.95;2.80;;;;;;;;;;5071626;28;20040;-68
2022/12/27 02:12:34;;;;;;;13.82;3.80;;;;;;;;;;5071325;28;20040;-69
2022/12/27 02:15:01;;;;;;;12.75;3.63;;;;;;;;;;5073497;28;20040;-69
2022/12/27 02:17:28;;;;;;;12.77;3.53;;;;;;;;;;5071603;28;20044;-69
2022/12/27 02:20:03;;;;;;;11.40;3.10;;;;;;;;;;5073625;28;20498;-69
2022/12/27 02:25:22;;;;;;;13.02;3.50;;;;;;;;;;5072164;28;20075;-69
2022/12/27 02:27:48;;;;;;;13.48;3.72;;;;;;;;;;5077830;28;20613;-69
2022/12/27 02:30:14;;;;;;;10.70;3.35;;;;;;;;;;5072855;28;20046;-69
2022/12/27 02:32:52;;;;;;;11.68;3.50;;;;;;;;;;5067836;28;20036;-69
2022/12/27 02:35:29;;;;;;;11.10;3.47;;;;;;;;;;5073389;28;20072;-69
2022/12/27 02:37:58;;;;;;;14.52;3.75;;;;;;;;;;5078896;28;20036;-69
2022/12/27 02:54:45;;;;;;;14.85;3.75;;;;;;;;;;5072701;28;20494;-70
2022/12/27 02:57:17;;;;;;;11.48;3.20;;;;;;;;;;5070253;28;20028;-70
2022/12/27 03:06:38;;;;;;;10.90;3.22;;;;;;;;;;5068319;28;20059;-70
2022/12/27 03:08:55;;;;;;;10.60;3.30;;;;;;;;;;5075405;28;20047;-70
2022/12/27 03:17:09;;;;;;;10.75;2.70;;;;;;;;;;5070221;28;20177;-69
2022/12/27 03:25:28;;;;;;;8.48;2.97;;;;;;;;;;5075864;28;20048;-67
2022/12/27 03:33:35;;;;;;;6.00;2.13;;;;;;;;;;5077317;28;20048;-69
2022/12/27 03:38:53;;;;;;;11.68;2.80;;;;;;;;;;5069773;28;20044;-69
2022/12/27 03:44:25;;;;;;;9.82;2.60;;;;;;;;;;5063196;28;20528;-69
2022/12/27 03:46:56;;;;;;;11.75;2.78;;;;;;;;;;5060822;28;20076;-69
2022/12/27 03:49:22;;;;;;;10.40;2.30;;;;;;;;;;5050886;28;20140;-69
2022/12/27 03:51:51;;;;;;;11.63;2.90;;;;;;;;;;5067197;28;20561;-69
2022/12/27 03:54:25;;;;;;;13.07;2.88;;;;;;;;;;5069327;28;20045;-69
2022/12/27 03:56:51;;;;;;;8.35;2.60;;;;;;;;;;5069225;28;20174;-69
2022/12/27 03:59:17;;;;;;;14.63;3.05;;;;;;;;;;5070870;28;20067;-69
2022/12/27 04:01:43;;;;;;;10.23;2.85;;;;;;;;;;5072869;28;20068;-69
2022/12/27 04:04:09;;;;;;;11.57;2.80;;;;;;;;;;5068276;28;20036;-68
2022/12/27 04:06:35;;;;;;;10.32;3.15;;;;;;;;;;5070234;28;20051;-68
2022/12/27 04:36:29;;;;;;;9.98;2.65;;;;;;;;;;5066692;28;20052;-69
2022/12/27 04:38:55;;;;;;;9.77;2.55;;;;;;;;;;5041663;28;20032;-69
2022/12/27 04:55:18;;;;;;;9.63;2.72;;;;;;;;;;5071028;28;20040;-69
2022/12/27 04:57:44;;;;;;;10.75;2.65;;;;;;;;;;5073353;28;20025;-69
2022/12/27 05:02:55;;;;;;;11.50;2.92;;;;;;;;;;5065678;28;20529;-69
2022/12/27 05:05:21;;;;;;;13.02;3.03;;;;;;;;;;5073517;28;20491;-71
2022/12/27 05:16:01;;;;;;;10.77;3.00;;;;;;;;;;5073305;28;20063;-70
2022/12/27 05:18:27;;;;;;;10.93;2.97;;;;;;;;;;5077679;28;20101;-70
2022/12/27 05:20:53;;;;;;;7.53;2.83;;;;;;;;;;5074435;28;20131;-70
2022/12/27 05:26:04;;;;;;;9.65;2.95;;;;;;;;;;5065896;28;20040;-70
2022/12/27 05:28:30;;;;;;;11.27;3.70;;;;;;;;;;5074363;28;20525;-70
2022/12/27 05:31:00;;;;;;;13.38;2.72;;;;;;;;;;5072046;28;20066;-70
2022/12/27 05:33:26;;;;;;;11.10;3.58;;;;;;;;;;5070104;28;20421;-70
2022/12/27 05:35:52;;;;;;;9.88;3.17;;;;;;;;;;5072018;28;20070;-70
2022/12/27 05:38:18;;;;;;;9.90;3.30;;;;;;;;;;5079117;28;20127;-69
2022/12/27 05:40:44;;;;;;;13.77;3.03;;;;;;;;;;5077066;28;20041;-69
2022/12/27 05:43:10;;;;;;;6.80;2.65;;;;;;;;;;5072899;28;20490;-69
2022/12/27 05:45:36;;;;;;;16.02;3.55;;;;;;;;;;5072943;28;20047;-70
2022/12/27 05:48:02;;;;;;;9.20;2.72;;;;;;;;;;5067637;28;20036;-69
2022/12/27 05:50:28;;;;;;;9.05;2.75;;;;;;;;;;5067773;28;20086;-68
2022/12/27 05:52:55;;;;;;;10.77;2.92;;;;;;;;;;5076013;28;20039;-69
2022/12/27 05:55:21;;;;;;;13.07;3.15;;;;;;;;;;5075789;28;20045;-68
2022/12/27 05:57:47;;;;;;;8.73;3.00;;;;;;;;;;5054758;28;20089;-69
2022/12/27 06:00:13;;;;;;;13.43;3.10;;;;;;;;;;5060834;28;20036;-70
2022/12/27 06:02:41;;;;;;;12.32;3.25;;;;;;;;;;5070217;28;20028;-69
2022/12/27 06:05:07;;;;;;;10.05;2.72;;;;;;;;;;5072645;28;20494;-70
2022/12/27 06:07:34;;;;;;;10.15;3.15;;;;;;;;;;5075768;28;20543;-68
2022/12/27 06:10:00;;;;;;;11.30;2.40;;;;;;;;;;5050665;28;20101;-68
2022/12/27 06:12:27;;;;;;;11.20;2.80;;;;;;;;;;5076574;28;20452;-68
2022/12/27 06:14:53;;;;;;;14.02;2.70;;;;;;;;;;5071345;28;20040;-68
2022/12/27 06:17:19;;;;;;;7.95;2.38;;;;;;;;;;5075082;28;20036;-68
2022/12/27 06:19:45;;;;;;;7.53;2.60;;;;;;;;;;5070957;28;20067;-68
2022/12/27 06:22:11;;;;;;;9.13;2.15;;;;;;;;;;5077704;28;20574;-68
2022/12/27 06:24:37;;;;;;;10.50;2.33;;;;;;;;;;5074462;28;20047;-69
2022/12/27 06:27:03;;;;;;;12.10;2.97;;;;;;;;;;5064164;28;20433;-69
2022/12/27 06:29:29;;;;;;;11.40;2.92;;;;;;;;;;5071139;28;20149;-69
2022/12/27 06:31:55;;;;;;;8.25;2.75;;;;;;;;;;5077492;28;20519;-69
2022/12/27 06:34:21;;;;;;;12.38;3.13;;;;;;;;;;5066242;28;20041;-68
2022/12/27 06:36:49;;;;;;;8.13;2.13;;;;;;;;;;5068747;28;20043;-70
2022/12/27 06:39:16;;;;;;;9.40;3.20;;;;;;;;;;5052717;28;20037;-70
2022/12/27 06:41:42;;;;;;;8.60;2.80;;;;;;;;;;5070703;28;20032;-70
2022/12/27 06:44:08;;;;;;;13.60;3.28;;;;;;;;;;5069483;28;20494;-69
2022/12/27 06:46:34;;;;;;;11.60;2.50;;;;;;;;;;5066562;28;20036;-69
2022/12/27 06:49:00;;;;;;;10.35;3.05;;;;;;;;;;5069245;28;20384;-69
2022/12/27 06:51:26;;;;;;;12.75;3.47;;;;;;;;;;5073036;28;20071;-69
2022/12/27 06:53:52;;;;;;;10.25;3.70;;;;;;;;;;5062100;28;20529;-69
2022/12/27 06:56:19;;;;;;;17.13;4.63;;;;;;;;;;5076963;28;20120;-69
2022/12/27 06:58:46;;;;;;;10.07;4.00;;;;;;;;;;5078765;28;20137;-69
2022/12/27 07:01:13;;;;;;;11.75;4.05;;;;;;;;;;5069220;28;20034;-68
2022/12/27 07:03:39;;;;;;;9.32;4.10;;;;;;;;;;5073812;28;20036;-68
2022/12/27 07:06:07;;;;;;;12.18;4.07;;;;;;;;;;5079798;28;20123;-69
2022/12/27 07:08:34;;;;;;;7.10;2.80;;;;;;;;;;5075626;28;20041;-69
2022/12/27 07:11:01;;;;;;;13.43;3.40;;;;;;;;;;5074691;28;20094;-68
2022/12/27 07:13:27;;;;;;;13.80;3.42;;;;;;;;;;5073626;28;20490;-69
2022/12/27 07:15:53;;;;;;;10.15;3.28;;;;;;;;;;5069527;28;20536;-70
2022/12/27 07:18:19;;;;;;;13.65;4.30;;;;;;;;;;5066926;28;20076;-70
2022/12/27 07:20:45;;;;;;;7.40;3.42;;;;;;;;;;5068786;28;20040;-68
2022/12/27 07:23:12;;;;;;;14.38;4.30;;;;;;;;;;5077833;28;20043;-68
2022/12/27 07:25:38;;;;;;;11.63;4.38;;;;;;;;;;5068010;28;20036;-69
2022/12/27 07:28:04;;;;;;;17.80;4.70;;;;;;;;;;5067056;28;20137;-70
2022/12/27 07:30:30;;;;;;;17.08;4.82;;;;;;;;;;5072001;28;20417;-69
2022/12/27 07:32:56;;;;;;;15.48;5.53;;;;;;;;;;5072245;28;20035;-69
2022/12/27 07:35:25;;;;;;;14.40;4.43;;;;;;;;;;5069905;28;20604;-71
2022/12/27 07:37:51;;;;;;;14.43;4.88;;;;;;;;;;5071952;28;20032;-71
2022/12/27 07:40:17;;;;;;;12.50;5.05;;;;;;;;;;5050508;22;20191;-71
2022/12/27 07:42:43;;;;;;;21.30;4.28;;;;;;;;;;5027066;28;20090;-71
2022/12/27 07:45:09;;;;;;;10.48;4.18;;;;;;;;;;4997433;28;20048;-70
2022/12/27 07:47:35;;;;;;;12.40;4.40;;;;;;;;;;5006196;28;20063;-70
2022/12/27 07:50:02;;;;;;;8.60;3.38;;;;;;;;;;5019863;28;20402;-70
2022/12/27 07:52:28;;;;;;;9.45;2.75;;;;;;;;;;5024700;28;20041;-70
2022/12/27 07:54:54;;;;;;;8.13;3.08;;;;;;;;;;5022646;28;20050;-70
2022/12/27 07:57:19;;;;;;;10.15;3.38;;;;;;;;;;5023217;28;20033;-70
2022/12/27 07:59:45;;;;;;;13.73;3.25;;;;;;;;;;5026173;28;20044;-70
2022/12/27 08:02:12;;;;;;;13.77;4.38;;;;;;;;;;5026139;28;20084;-71
2022/12/27 08:04:38;;;;;;;10.88;3.78;;;;;;;;;;5022329;28;20046;-72
2022/12/27 08:07:10;;;;;;;10.90;4.28;;;;;;;;;;4991148;28;20045;-70
2022/12/27 08:09:38;;;;;;;15.45;4.22;;;;;;;;;;5019611;28;20037;-72
2022/12/27 08:12:04;;;;;;;8.60;4.05;;;;;;;;;;5021225;28;20100;-72
2022/12/27 08:14:30;;;;;;;15.30;3.90;;;;;;;;;;5007419;28;20045;-72
2022/12/27 08:16:58;;;;;;;7.68;3.40;;;;;;;;;;5006548;28;20112;-72
2022/12/27 08:19:24;;;;;;;12.88;3.83;;;;;;;;;;5018661;28;20033;-69
2022/12/27 08:21:50;;;;;;;15.10;4.57;;;;;;;;;;5025443;28;20033;-69
2022/12/27 08:24:16;;;;;;;9.88;3.65;;;;;;;;;;5024083;28;20522;-69
2022/12/27 08:26:42;;;;;;;12.63;4.65;;;;;;;;;;5023054;28;20137;-66
2022/12/27 08:29:08;;;;;;;11.93;4.72;;;;;;;;;;5004283;28;20053;-66
2022/12/27 08:31:34;;;;;;;14.13;4.70;;;;;;;;;;5022904;28;20491;-66
2022/12/27 08:34:02;;;;;;;18.15;4.60;;;;;;;;;;5024383;28;20087;-66
2022/12/27 08:36:28;;;;;;;9.88;3.97;;;;;;;;;;5025102;28;20064;-66
2022/12/27 08:38:54;;;;;;;18.73;4.25;;;;;;;;;;5022385;28;20555;-66
2022/12/27 08:41:21;;;;;;;11.30;4.80;;;;;;;;;;5024670;28;20140;-66
2022/12/27 08:43:47;;;;;;;21.80;4.00;;;;;;;;;;5021291;28;20172;-65
2022/12/27 08:46:13;;;;;;;13.50;4.25;;;;;;;;;;5025310;28;20045;-65
2022/12/27 08:48:39;;;;;;;12.52;4.57;;;;;;;;;;5024738;28;20042;-65
2022/12/27 08:51:06;;;;;;;9.80;3.85;;;;;;;;;;5023467;28;20037;-66
2022/12/27 08:53:32;;;;;;;11.50;4.20;;;;;;;;;;5005893;28;20045;-65
2022/12/27 08:55:58;;;;;;;11.82;3.60;;;;;;;;;;5002764;28;20442;-66
2022/12/27 08:58:24;;;;;;;11.00;3.95;;;;;;;;;;5023479;28;20110;-65
2022/12/27 09:00:50;;;;;;;15.80;4.68;;;;;;;;;;5021921;28;20156;-66
2022/12/27 09:03:17;;;;;;;11.00;3.70;;;;;;;;;;5024819;28;20084;-66
2022/12/27 09:05:43;;;;;;;13.68;4.38;;;;;;;;;;5023138;28;20096;-66
2022/12/27 09:08:09;;;;;;;17.20;4.60;;;;;;;;;;5004231;28;20053;-66
2022/12/27 09:10:36;;;;;;;14.55;4.05;;;;;;;;;;5022082;28;20033;-66
2022/12/27 09:13:02;;;;;;;15.38;4.43;;;;;;;;;;5025326;28;20033;-66
2022/12/27 09:15:28;;;;;;;12.38;4.13;;;;;;;;;;5018990;28;20579;-66
2022/12/27 09:17:54;;;;;;;13.05;4.28;;;;;;;;;;5024542;28;20133;-66
2022/12/27 09:20:20;;;;;;;12.23;4.30;;;;;;;;;;5023518;28;20062;-66
2022/12/27 09:22:46;;;;;;;9.60;3.90;;;;;;;;;;5004643;28;20076;-66
2022/12/27 09:25:12;;;;;;;12.98;5.07;;;;;;;;;;5025712;28;20058;-66
2022/12/27 09:27:38;;;;;;;10.93;3.80;;;;;;;;;;5023721;28;20179;-65
2022/12/27 09:30:05;;;;;;;13.57;4.32;;;;;;;;;;5005580;28;20644;-65
2022/12/27 09:32:31;;;;;;;16.48;4.68;;;;;;;;;;5028063;28;20476;-66
2022/12/27 09:34:57;;;;;;;12.60;4.47;;;;;;;;;;5029401;28;20394;-65
2022/12/27 09:37:23;;;;;;;12.80;4.47;;;;;;;;;;5028449;28;20100;-65
2022/12/27 09:39:50;;;;;;;11.13;4.07;;;;;;;;;;5027150;28;20052;-66
2022/12/27 09:42:25;;;;;;;10.25;3.90;;;;;;;;;;5030765;28;20483;-64
2022/12/27 09:44:53;;;;;;;10.93;4.10;;;;;;;;;;5003621;28;20051;-66
2022/12/27 09:47:38;;;;;;;9.73;3.80;;;;;;;;;;5024475;28;20048;-66
2022/12/27 09:50:13;;;;;;;13.20;3.92;;;;;;;;;;5017142;28;20034;-66
2022/12/27 09:52:57;;;;;;;14.63;4.68;;;;;;;;;;5032943;28;20038;-66
2022/12/27 09:55:29;;;;;;;11.93;3.85;;;;;;;;;;5032084;28;20523;-65
2022/12/27 09:57:58;;;;;;;9.77;3.75;;;;;;;;;;5022334;28;20048;-66
2022/12/27 10:00:24;;;;;;;12.32;3.75;;;;;;;;;;5017724;28;20182;-66
2022/12/27 10:02:50;;;;;;;11.35;3.78;;;;;;;;;;5025638;28;20040;-65
2022/12/27 10:05:22;;;;;;;14.95;4.75;;;;;;;;;;5018487;28;20045;-65
2022/12/27 10:08:09;;;;;;;10.57;3.58;;;;;;;;;;5026430;28;20559;-66
2022/12/27 10:10:48;;;;;;;12.60;4.20;;;;;;;;;;5028541;28;20041;-66
2022/12/27 10:13:26;;;;;;;9.68;4.07;;;;;;;;;;5022802;28;20515;-66
2022/12/27 10:15:55;;;;;;;10.55;4.18;;;;;;;;;;5018227;28;20042;-66
2022/12/27 10:18:27;;;;;;;9.77;3.60;;;;;;;;;;5017022;28;20042;-66
2022/12/27 10:20:56;;;;;;;13.45;4.03;;;;;;;;;;5025505;28;20499;-64
2022/12/27 10:23:25;;;;;;;12.35;3.88;;;;;;;;;;5026513;28;20076;-65
2022/12/27 10:25:55;;;;;;;11.52;3.90;;;;;;;;;;5032526;28;20068;-66
2022/12/27 10:28:26;;;;;;;15.13;4.28;;;;;;;;;;5011412;28;20076;-65
2022/12/27 10:30:52;;;;;;;10.90;3.63;;;;;;;;;;5028587;28;20056;-66
2022/12/27 10:33:36;;;;;;;17.85;4.20;;;;;;;;;;5026197;28;20044;-65
2022/12/27 10:36:06;;;;;;;15.25;3.50;;;;;;;;;;5027740;28;20041;-65
2022/12/27 10:38:33;;;;;;;11.50;3.70;;;;;;;;;;5020892;28;20042;-65
2022/12/27 10:41:11;;;;;;;9.00;3.10;;;;;;;;;;5030001;28;20046;-66
2022/12/27 10:43:41;;;;;;;9.98;3.67;;;;;;;;;;5018947;28;20230;-66
2022/12/27 10:46:11;;;;;;;9.25;3.22;;;;;;;;;;5026529;28;20117;-66
2022/12/27 10:48:37;;;;;;;8.20;3.10;;;;;;;;;;5028053;28;20037;-66
2022/12/27 10:51:10;;;;;;;14.52;3.42;;;;;;;;;;5020792;28;20038;-66
2022/12/27 10:53:39;;;;;;;17.73;3.55;;;;;;;;;;5028269;28;20060;-66
2022/12/27 10:56:06;;;;;;;7.40;3.08;;;;;;;;;;5020461;28;20503;-66
2022/12/27 10:58:38;;;;;;;7.00;2.40;;;;;;;;;;5028368;28;20071;-66
2022/12/27 11:01:04;;;;;;;12.50;3.10;;;;;;;;;;5024867;28;20037;-66
2022/12/27 11:03:31;;;;;;;17.55;3.45;;;;;;;;;;5024117;28;20042;-66
2022/12/27 11:06:01;;;;;;;10.50;2.92;;;;;;;;;;5024662;28;20043;-66
2022/12/27 11:08:27;;;;;;;12.38;3.53;;;;;;;;;;5020284;28;20033;-66
2022/12/27 11:11:12;;;;;;;9.75;3.22;;;;;;;;;;5022506;28;20530;-66
2022/12/27 11:13:38;;;;;;;10.73;4.05;;;;;;;;;;5019868;28;20037;-66
2022/12/27 11:16:04;;;;;;;18.20;4.00;;;;;;;;;;5013882;28;20049;-66
2022/12/27 11:18:33;;;;;;;13.05;3.20;;;;;;;;;;5013879;28;20538;-66
2022/12/27 11:20:59;;;;;;;14.15;2.80;;;;;;;;;;5027819;28;20112;-66
2022/12/27 11:23:36;;;;;;;13.63;3.88;;;;;;;;;;5024020;28;20044;-66
2022/12/27 11:26:04;;;;;;;9.10;3.78;;;;;;;;;;5027040;28;20048;-65
2022/12/27 11:28:37;;;;;;;10.13;2.45;;;;;;;;;;5015921;28;20034;-66
2022/12/27 11:31:23;;;;;;;8.98;3.33;;;;;;;;;;5025701;28;20511;-66
2022/12/27 11:33:50;;;;;;;10.52;3.50;;;;;;;;;;5007646;28;20099;-66
2022/12/27 11:36:24;;;;;;;11.07;3.33;;;;;;;;;;5026495;28;20037;-66
2022/12/27 11:38:50;;;;;;;10.75;3.00;;;;;;;;;;5021744;28;20033;-66
2022/12/27 11:41:21;;;;;;;8.07;2.80;;;;;;;;;;5011176;28;20481;-68
2022/12/27 11:43:50;;;;;;;9.50;2.97;;;;;;;;;;5023330;28;20038;-66
2022/12/27 11:46:22;;;;;;;9.70;3.33;;;;;;;;;;5021600;28;20048;-67
2022/12/27 11:48:52;;;;;;;11.43;3.10;;;;;;;;;;5026986;28;20129;-66
2022/12/27 11:51:28;;;;;;;6.38;2.60;;;;;;;;;;5022842;28;20064;-66
2022/12/27 11:54:04;;;;;;;15.85;3.38;;;;;;;;;;5022671;28;20404;-66
2022/12/27 11:56:34;;;;;;;9.57;3.00;;;;;;;;;;5023573;28;20042;-66
2022/12/27 11:59:18;;;;;;;11.60;3.13;;;;;;;;;;5014514;28;20112;-65
2022/12/27 12:02:03;;;;;;;10.52;3.58;;;;;;;;;;4998058;28;20044;-65
2022/12/27 12:04:38;;;;;;;10.18;3.58;;;;;;;;;;5016519;28;20038;-65
2022/12/27 12:07:23;;;;;;;10.68;3.40;;;;;;;;;;5022866;28;20041;-65
2022/12/27 12:10:12;;;;;;;7.82;3.30;;;;;;;;;;5020667;28;20045;-66
2022/12/27 12:12:57;;;;;;;13.13;3.53;;;;;;;;;;5011637;28;20384;-66
2022/12/27 12:15:48;;;;;;;9.82;3.70;;;;;;;;;;5023969;28;20076;-66
2022/12/27 12:18:33;;;;;;;15.15;3.70;;;;;;;;;;5023890;28;20076;-66
2022/12/27 12:21:02;;;;;;;13.48;5.03;;;;;;;;;;5024160;28;20483;-66
2022/12/27 12:23:45;;;;;;;12.55;4.53;;;;;;;;;;5022574;28;20037;-66
2022/12/27 12:26:15;;;;;;;13.15;4.30;;;;;;;;;;5026026;28;20562;-65
2022/12/27 12:28:57;;;;;;;10.95;4.40;;;;;;;;;;5020531;28;20380;-66
2022/12/27 12:31:26;;;;;;;14.32;4.45;;;;;;;;;;5023233;28;20506;-67
2022/12/27 12:34:02;;;;;;;13.55;4.60;;;;;;;;;;5028103;28;20041;-67
2022/12/27 12:36:34;;;;;;;16.13;5.03;;;;;;;;;;5018635;28;20514;-67
2022/12/27 12:39:19;;;;;;;12.93;4.53;;;;;;;;;;5022978;28;20038;-66
2022/12/27 12:41:54;;;;;;;10.60;4.78;;;;;;;;;;5023573;28;20041;-65
2022/12/27 12:44:38;;;;;;;12.10;4.90;;;;;;;;;;5026587;28;20041;-68
2022/12/27 12:47:04;;;;;;;16.83;5.10;;;;;;;;;;5014205;28;20135;-67
2022/12/27 12:49:46;;;;;;;13.43;4.93;;;;;;;;;;5015687;28;20081;-66
2022/12/27 12:52:28;;;;;;;10.13;4.43;;;;;;;;;;5025404;28;20068;-67
2022/12/27 12:55:13;;;;;;;11.95;5.15;;;;;;;;;;5027308;28;20042;-67
2022/12/27 12:57:44;;;;;;;15.13;5.82;;;;;;;;;;5029831;28;20037;-67
2022/12/27 13:00:14;;;;;;;17.42;5.35;;;;;;;;;;5024731;28;20045;-67
2022/12/27 13:02:58;;;;;;;15.68;6.10;;;;;;;;;;5022861;28;20065;-68
2022/12/27 13:05:33;;;;;;;12.80;6.10;;;;;;;;;;5028187;28;20045;-66
2022/12/27 13:08:25;;;;;;;15.82;7.18;;;;;;;;;;5004696;28;20045;-67
2022/12/27 13:11:15;;;;;;;15.20;7.25;;;;;;;;;;4992770;28;20470;-67
2022/12/27 13:13:56;;;;;;;14.23;6.75;;;;;;;;;;5022702;28;20045;-67
2022/12/27 13:16:41;;;;;;;18.75;7.95;;;;;;;;;;5026667;28;20037;-66
2022/12/27 13:19:31;;;;;;;16.75;7.28;;;;;;;;;;5030414;28;20033;-66
2022/12/27 13:22:00;;;;;;;19.73;8.55;;;;;;;;;;5023307;28;20044;-66
2022/12/27 13:24:44;;;;;;;19.25;8.13;;;;;;;;;;5021625;28;20045;-66
2022/12/27 13:27:16;;;;;;;15.93;8.25;;;;;;;;;;5015786;28;20037;-66
2022/12/27 13:29:52;;;;;;;15.88;6.97;;;;;;;;;;5030199;28;20045;-66
2022/12/27 13:32:27;;;;;;;13.75;7.38;;;;;;;;;;5025931;28;20091;-66
2022/12/27 13:35:01;;;;;;;14.25;8.65;;;;;;;;;;5016438;28;20078;-67
2022/12/27 13:37:51;;;;;;;21.20;9.48;;;;;;;;;;5030082;28;20041;-66
2022/12/27 13:40:35;;;;;;;19.92;9.75;;;;;;;;;;5029129;22;20053;-65
2022/12/27 13:43:13;;;;;;;24.02;9.85;;;;;;;;;;5024750;28;20037;-65
2022/12/27 13:45:46;;;;;;;17.60;9.63;;;;;;;;;;5025233;28;20041;-65
2022/12/27 13:48:18;;;;;;;16.77;9.77;;;;;;;;;;5027540;28;20044;-65
2022/12/27 13:51:03;;;;;;;18.95;10.10;;;;;;;;;;5032581;28;20042;-65
2022/12/27 13:53:50;;;;;;;19.38;9.13;;;;;;;;;;5032117;28;20041;-65
2022/12/27 13:56:32;;;;;;;18.40;10.35;;;;;;;;;;5026517;28;20037;-65
2022/12/27 13:59:09;;;;;;;17.30;10.25;;;;;;;;;;5028742;28;20116;-65
2022/12/27 14:01:44;;;;;;;20.80;10.98;;;;;;;;;;5023565;28;20047;-65
2022/12/27 14:04:28;;;;;;;18.15;10.90;;;;;;;;;;5029711;28;20450;-65
2022/12/27 14:06:54;;;;;;;27.85;11.23;;;;;;;;;;5025071;28;20038;-65
2022/12/27 14:09:32;;;;;;;20.02;11.07;;;;;;;;;;5025232;28;20045;-65
2022/12/27 14:12:17;;;;;;;20.38;8.93;;;;;;;;;;5024973;28;20037;-66
2022/12/27 14:14:44;;;;;;;21.30;10.90;;;;;;;;;;5026884;28;20041;-66
2022/12/27 14:17:16;;;;;;;15.50;10.40;;;;;;;;;;5030838;28;20116;-66
2022/12/27 14:20:02;;;;;;;23.33;11.50;;;;;;;;;;5031601;28;20034;-66
2022/12/27 14:22:28;;;;;;;20.88;10.98;;;;;;;;;;5030947;28;20033;-66
2022/12/27 14:25:28;;;;;;;18.45;9.43;;;;;;;;;;5030867;28;20602;-67
2022/12/27 14:28:03;;;;;;;22.02;10.60;;;;;;;;;;5031993;28;20052;-66
2022/12/27 14:30:48;;;;;;;20.08;11.40;;;;;;;;;;5030107;28;20115;-66
2022/12/27 14:33:34;;;;;;;16.48;9.90;;;;;;;;;;5026429;28;20041;-66
2022/12/27 14:36:11;;;;;;;23.27;11.00;;;;;;;;;;5025462;28;20094;-67
2022/12/27 14:39:03;;;;;;;20.85;11.05;;;;;;;;;;5026526;28;20828;-66
2022/12/27 14:41:47;;;;;;;22.17;11.65;;;;;;;;;;5029548;28;20041;-66
2022/12/27 14:44:19;;;;;;;22.98;12.07;;;;;;;;;;5029290;28;20045;-66
2022/12/27 14:47:04;;;;;;;19.05;10.90;;;;;;;;;;5029815;28;20052;-66
2022/12/27 14:49:45;;;;;;;21.75;12.00;;;;;;;;;;5031711;28;20555;-66
2022/12/27 14:52:30;;;;;;;19.17;11.45;;;;;;;;;;5031848;28;20047;-66
2022/12/27 14:55:15;;;;;;;22.42;11.80;;;;;;;;;;5027717;28;20054;-66
2022/12/27 14:57:59;;;;;;;19.35;11.90;;;;;;;;;;5028474;28;20037;-66
2022/12/27 15:00:28;;;;;;;21.83;12.63;;;;;;;;;;5031122;28;20037;-66
2022/12/27 15:03:04;;;;;;;21.98;11.95;;;;;;;;;;5029731;28;20040;-66
2022/12/27 15:05:48;;;;;;;20.42;11.23;;;;;;;;;;5025465;28;20045;-66
2022/12/27 15:08:26;;;;;;;21.98;13.00;;;;;;;;;;5024411;28;20049;-66
2022/12/27 15:11:11;;;;;;;23.15;11.95;;;;;;;;;;5021147;28;20045;-66
2022/12/27 15:13:43;;;;;;;27.83;12.25;;;;;;;;;;5027999;28;20041;-66
2022/12/27 15:16:18;;;;;;;20.67;11.07;;;;;;;;;;5029119;28;20041;-66
2022/12/27 15:18:48;;;;;;;19.73;11.40;;;;;;;;;;5029975;28;20398;-65
2022/12/27 15:21:25;;;;;;;21.90;11.65;;;;;;;;;;5020586;28;20077;-65
2022/12/27 15:23:53;;;;;;;20.73;11.98;;;;;;;;;;5025750;28;20033;-66
2022/12/27 15:26:27;;;;;;;27.55;15.75;;;;;;;;;;5023789;28;20069;-67
2022/12/27 15:28:53;;;;;;;22.48;12.07;;;;;;;;;;5023704;28;20034;-67
2022/12/27 15:31:19;;;;;;;20.35;11.73;;;;;;;;;;5033223;28;20044;-68
2022/12/27 15:33:53;;;;;;;20.83;12.45;;;;;;;;;;5028500;28;20038;-66
2022/12/27 15:36:34;;;;;;;19.80;10.95;;;;;;;;;;5021399;28;20708;-67
2022/12/27 15:39:01;;;;;;;21.65;11.20;;;;;;;;;;5016901;28;20033;-69
2022/12/27 15:41:49;;;;;;;21.92;12.05;;;;;;;;;;5023791;28;20124;-69
2022/12/27 15:44:15;;;;;;;16.13;9.77;;;;;;;;;;5025041;28;20052;-70
2022/12/27 15:47:17;;;;;;;25.70;11.00;;;;;;;;;;5027472;28;20447;-70
2022/12/27 15:49:43;;;;;;;18.77;9.27;;;;;;;;;;4957062;28;20046;-70
2022/12/27 15:52:23;;;;;;;18.65;9.45;;;;;;;;;;5014023;28;20510;-70
2022/12/27 15:55:01;;;;;;;17.20;9.68;;;;;;;;;;5029680;28;20042;-70
2022/12/27 15:57:27;;;;;;;15.50;9.50;;;;;;;;;;5025515;28;20068;-70
2022/12/27 15:59:54;;;;;;;18.02;8.63;;;;;;;;;;5027167;28;20544;-71
2022/12/27 16:02:26;;;;;;;17.23;9.43;;;;;;;;;;5030525;28;20052;-70
2022/12/27 16:04:57;;;;;;;18.08;8.55;;;;;;;;;;5030403;28;20041;-70
2022/12/27 16:07:42;;;;;;;17.45;9.43;;;;;;;;;;5027132;28;20037;-70
2022/12/27 16:10:27;;;;;;;18.63;8.63;;;;;;;;;;5032785;28;20038;-70
2022/12/27 16:12:54;;;;;;;18.90;9.02;;;;;;;;;;5032990;28;20042;-70
2022/12/27 16:15:39;;;;;;;18.00;8.52;;;;;;;;;;5032861;28;20052;-71
2022/12/27 16:18:11;;;;;;;20.45;9.18;;;;;;;;;;5025304;28;20045;-70
2022/12/27 16:20:37;;;;;;;15.70;8.60;;;;;;;;;;5028708;28;20407;-70
2022/12/27 16:23:05;;;;;;;16.90;7.88;;;;;;;;;;5029536;28;20056;-71
2022/12/27 16:25:36;;;;;;;15.45;7.75;;;;;;;;;;5028361;28;20098;-70
2022/12/27 16:28:02;;;;;;;;;;;;;;;;;;5025520;28;20037;-71
2022/12/27 16:30:36;;;;;;;14.32;8.05;;;;;;;;;;5026768;28;19932;-71
2022/12/27 16:33:02;;;;;;;15.68;8.00;;;;;;;;;;5030145;28;20037;-70
2022/12/27 16:35:29;;;;;;;12.70;8.02;;;;;;;;;;5027109;28;20065;-71
2022/12/27 16:37:55;;;;;;;16.33;9.65;;;;;;;;;;5032475;28;20471;-70